Time;durP1;ratioP1;P1;durP2;ratioP2;P2;SDS_P1;SDS_P2;PMS_P1;PMS_P2;Temp;Humidity;BMP_temperature;BMP_pressure;BME280_temperature;BME280_humidity;BME280_pressure;Samples;Min_cycle;Max_cycle;Signal;HPM_P1;HPM_P2
2021/01/25 00:01:58;;;;;;;10.10;4.00;;;;;;;-3.86;100.00;94693.13;5022532;28;20252;-70
2021/01/25 00:04:24;;;;;;;12.03;4.17;;;;;;;-3.78;100.00;94695.06;5022420;28;20202;-70
2021/01/25 00:06:50;;;;;;;12.83;4.00;;;;;;;-3.79;100.00;94698.59;5021334;28;20254;-70
2021/01/25 00:09:16;;;;;;;10.10;3.90;;;;;;;-3.89;100.00;94693.41;5021913;28;20344;-70
2021/01/25 00:11:42;;;;;;;9.00;4.23;;;;;;;-3.82;100.00;94699.66;5022067;28;20241;-70
2021/01/25 00:14:08;;;;;;;9.33;4.37;;;;;;;-3.83;100.00;94697.22;5022526;28;20650;-70
2021/01/25 00:16:35;;;;;;;15.80;4.37;;;;;;;-4.08;100.00;94702.78;5021501;28;20252;-70
2021/01/25 00:19:00;;;;;;;11.10;4.20;;;;;;;-4.20;100.00;94698.66;5021570;28;20205;-70
2021/01/25 00:21:26;;;;;;;14.00;4.63;;;;;;;-4.35;100.00;94697.38;5021572;28;20261;-70
2021/01/25 00:23:52;;;;;;;15.30;5.03;;;;;;;-4.34;100.00;94698.16;5021627;28;20215;-70
2021/01/25 00:26:19;;;;;;;11.53;4.83;;;;;;;-4.36;100.00;94698.28;5020753;28;20264;-70
2021/01/25 00:28:45;;;;;;;11.87;5.00;;;;;;;-4.35;100.00;94687.09;5021555;28;21094;-70
2021/01/25 00:31:12;;;;;;;11.00;4.90;;;;;;;-4.28;100.00;94689.97;5021516;28;20211;-70
2021/01/25 00:33:38;;;;;;;16.13;5.80;;;;;;;-4.23;100.00;94698.91;5021833;28;20757;-70
2021/01/25 00:36:04;;;;;;;15.47;5.33;;;;;;;-4.19;100.00;94695.97;5021175;28;20230;-70
2021/01/25 00:38:30;;;;;;;12.23;5.20;;;;;;;-4.27;100.00;94694.16;5021590;28;20806;-70
2021/01/25 00:40:56;;;;;;;10.30;5.20;;;;;;;-4.33;100.00;94692.91;5021901;28;20233;-70
2021/01/25 00:43:22;;;;;;;11.47;4.83;;;;;;;-4.23;100.00;94691.19;5021547;28;20204;-70
2021/01/25 00:45:48;;;;;;;12.33;5.17;;;;;;;-4.15;100.00;94681.91;5020844;28;20205;-70
2021/01/25 00:48:15;;;;;;;11.47;5.43;;;;;;;-4.12;100.00;94680.84;5021208;28;20251;-70
2021/01/25 00:50:41;;;;;;;10.30;5.07;;;;;;;-4.03;100.00;94680.88;5021876;28;20205;-70
2021/01/25 00:53:07;;;;;;;13.17;5.43;;;;;;;-3.95;100.00;94668.19;5021251;28;20303;-70
2021/01/25 00:55:32;;;;;;;8.73;4.93;;;;;;;-4.02;100.00;94668.84;5020121;28;21089;-70
2021/01/25 00:57:58;;;;;;;13.97;4.73;;;;;;;-4.11;100.00;94661.88;5021817;28;20240;-70
2021/01/25 01:00:25;;;;;;;10.53;4.93;;;;;;;-4.06;100.00;94659.75;5025057;28;20808;-70
2021/01/25 01:02:50;;;;;;;8.20;4.73;;;;;;;-4.00;100.00;94648.97;5025473;28;20205;-70
2021/01/25 01:05:17;;;;;;;13.37;5.20;;;;;;;-3.93;100.00;94637.22;5025205;28;20622;-70
2021/01/25 01:07:43;;;;;;;12.23;4.80;;;;;;;-3.89;100.00;94625.72;5025681;28;20235;-70
2021/01/25 01:10:09;;;;;;;9.77;4.33;;;;;;;-3.97;100.00;94617.81;5025761;28;20723;-70
2021/01/25 01:12:36;;;;;;;13.40;4.70;;;;;;;-4.03;100.00;94606.31;5025884;28;20371;-70
2021/01/25 01:15:10;;;;;;;10.30;4.43;;;;;;;-3.91;100.00;94594.16;5024993;28;20276;-70
2021/01/25 01:17:36;;;;;;;11.00;4.20;;;;;;;-3.71;100.00;94588.13;5024824;28;20280;-70
2021/01/25 01:20:02;;;;;;;7.20;3.80;;;;;;;-3.56;100.00;94588.41;5026567;28;20676;-70
2021/01/25 01:22:29;;;;;;;10.60;4.47;;;;;;;-3.36;100.00;94589.25;5026879;28;20205;-70
2021/01/25 01:24:55;;;;;;;10.40;4.30;;;;;;;-3.15;100.00;94588.19;5026903;28;20205;-70
2021/01/25 01:27:21;;;;;;;7.07;3.90;;;;;;;-3.04;100.00;94590.63;5026429;28;20771;-70
2021/01/25 01:29:47;;;;;;;10.47;4.20;;;;;;;-2.86;100.00;94578.69;5027488;28;20311;-71
2021/01/25 01:32:13;;;;;;;9.07;4.50;;;;;;;-2.71;100.00;94582.44;5027584;28;20202;-70
2021/01/25 01:34:39;;;;;;;9.17;4.47;;;;;;;-2.63;100.00;94582.59;5026763;28;20224;-71
2021/01/25 01:37:05;;;;;;;9.70;4.87;;;;;;;-2.50;100.00;94576.16;5027456;28;20312;-71
2021/01/25 01:39:32;;;;;;;10.57;4.20;;;;;;;-2.42;100.00;94574.53;5027634;28;20210;-70
2021/01/25 01:41:58;;;;;;;8.53;4.40;;;;;;;-2.40;100.00;94577.75;5027644;28;20213;-71
2021/01/25 01:44:24;;;;;;;9.13;4.53;;;;;;;-2.37;100.00;94579.25;5027659;28;20208;-70
2021/01/25 01:46:50;;;;;;;13.30;5.80;;;;;;;-2.40;100.00;94582.91;5026855;28;20230;-70
2021/01/25 01:49:16;;;;;;;15.30;5.27;;;;;;;-2.42;100.00;94586.59;5027508;28;20221;-70
2021/01/25 01:51:42;;;;;;;13.00;5.03;;;;;;;-2.48;100.00;94594.06;5027155;28;20247;-70
2021/01/25 01:54:09;;;;;;;11.57;5.00;;;;;;;-2.36;100.00;94614.41;5027082;28;20209;-70
2021/01/25 01:56:36;;;;;;;14.30;5.37;;;;;;;-2.34;100.00;94610.72;5026620;28;20230;-71
2021/01/25 01:59:03;;;;;;;9.73;4.90;;;;;;;-2.30;100.00;94599.19;5027803;28;20201;-70
2021/01/25 02:01:29;;;;;;;9.80;4.87;;;;;;;-2.16;100.00;94595.34;5026928;28;20209;-71
2021/01/25 02:03:56;;;;;;;11.93;4.53;;;;;;;-2.17;100.00;94586.78;5027639;28;20625;-70
2021/01/25 02:06:23;;;;;;;8.00;4.43;;;;;;;-2.19;100.00;94585.28;5027078;28;20229;-70
2021/01/25 02:08:51;;;;;;;9.47;4.60;;;;;;;-2.28;100.00;94581.81;5027578;28;20206;-70
2021/01/25 02:11:18;;;;;;;10.13;5.17;;;;;;;-2.24;100.00;94578.00;5026274;28;20202;-70
2021/01/25 02:13:47;;;;;;;9.67;4.63;;;;;;;-2.18;100.00;94576.59;5027627;28;20197;-70
2021/01/25 02:16:13;;;;;;;7.60;4.20;;;;;;;-2.24;100.00;94572.84;5026882;28;20226;-71
2021/01/25 02:18:39;;;;;;;8.07;4.00;;;;;;;-2.21;99.33;94564.81;5027190;28;20201;-70
2021/01/25 02:21:08;;;;;;;8.70;4.13;;;;;;;-2.26;99.93;94567.00;5026557;28;20212;-70
2021/01/25 02:23:47;;;;;;;8.93;4.20;;;;;;;-2.21;96.82;94566.59;5026760;28;20202;-70
2021/01/25 02:26:21;;;;;;;8.80;3.73;;;;;;;-2.21;96.22;94554.47;5026689;28;20201;-70
2021/01/25 02:28:48;;;;;;;7.93;3.70;;;;;;;-2.22;95.01;94559.78;5026230;28;20198;-70
2021/01/25 02:31:15;;;;;;;8.30;3.73;;;;;;;-2.33;95.63;94555.63;5026411;28;20220;-70
2021/01/25 02:33:44;;;;;;;7.63;3.47;;;;;;;-2.30;96.79;94557.91;5026731;28;20194;-70
2021/01/25 02:36:11;;;;;;;7.33;4.10;;;;;;;-2.22;96.42;94550.28;5026249;28;20225;-70
2021/01/25 02:38:38;;;;;;;10.47;4.03;;;;;;;-2.20;98.72;94553.53;5026123;28;20701;-71
2021/01/25 02:41:06;;;;;;;9.27;3.80;;;;;;;-2.19;94.85;94560.31;5026907;28;20209;-70
2021/01/25 02:43:32;;;;;;;6.67;3.70;;;;;;;-2.15;95.42;94559.09;5026004;28;20267;-71
2021/01/25 02:45:59;;;;;;;6.90;3.60;;;;;;;-2.05;96.59;94559.88;5026426;28;21127;-70
2021/01/25 02:48:25;;;;;;;5.27;3.43;;;;;;;-2.08;93.93;94556.75;5026887;28;20264;-70
2021/01/25 02:50:51;;;;;;;6.80;3.70;;;;;;;-2.04;91.36;94563.25;5026823;28;20213;-70
2021/01/25 02:53:18;;;;;;;8.33;3.87;;;;;;;-2.06;94.29;94568.56;5026726;28;20673;-70
2021/01/25 02:55:45;;;;;;;15.50;6.63;;;;;;;-2.18;92.80;94567.09;5026622;28;20602;-70
2021/01/25 02:58:12;;;;;;;14.03;6.30;;;;;;;-2.21;94.20;94554.47;5026616;28;20731;-70
2021/01/25 03:00:39;;;;;;;9.53;4.33;;;;;;;-2.30;95.40;94570.00;5026369;28;20209;-71
2021/01/25 03:03:07;;;;;;;14.43;6.37;;;;;;;-2.39;95.57;94576.81;5025856;28;20255;-70
2021/01/25 03:05:33;;;;;;;9.93;5.20;;;;;;;-2.31;96.51;94571.75;5025572;28;20208;-70
2021/01/25 03:08:00;;;;;;;12.07;5.43;;;;;;;-2.28;96.45;94576.66;5026593;28;20244;-71
2021/01/25 03:10:26;;;;;;;8.27;4.77;;;;;;;-2.26;95.63;94577.31;5025855;28;20282;-71
2021/01/25 03:12:52;;;;;;;9.60;3.87;;;;;;;-2.20;95.60;94576.75;5026016;28;20211;-70
2021/01/25 03:15:18;;;;;;;9.57;4.20;;;;;;;-2.19;95.72;94578.38;5025545;28;20252;-71
2021/01/25 03:17:45;;;;;;;7.87;3.80;;;;;;;-2.23;93.62;94589.94;5024680;28;20809;-70
2021/01/25 03:20:12;;;;;;;7.90;3.63;;;;;;;-2.19;93.47;94591.28;5025940;28;20201;-71
2021/01/25 03:22:38;;;;;;;7.20;3.80;;;;;;;-2.21;93.69;94587.22;5025772;28;20209;-71
2021/01/25 03:25:05;;;;;;;9.17;4.10;;;;;;;-2.12;94.38;94594.09;5025571;28;20198;-70
2021/01/25 03:27:31;;;;;;;13.13;4.23;;;;;;;-2.07;93.36;94595.28;5025003;28;20225;-70
2021/01/25 03:29:57;;;;;;;7.93;4.03;;;;;;;-2.08;95.75;94591.09;5025659;28;20229;-70
2021/01/25 03:32:23;;;;;;;8.13;4.10;;;;;;;-2.04;94.65;94595.00;5025767;28;20248;-71
2021/01/25 03:34:49;;;;;;;12.30;5.50;;;;;;;-2.06;94.82;94594.34;5024587;28;20811;-71
2021/01/25 03:37:16;;;;;;;14.23;5.23;;;;;;;-2.04;95.68;94592.44;5024774;28;20253;-71
2021/01/25 03:39:42;;;;;;;10.63;4.37;;;;;;;-2.01;97.71;94604.22;5025485;28;20212;-71
2021/01/25 03:42:08;;;;;;;8.97;4.47;;;;;;;-1.95;98.79;94599.31;5025477;28;20232;-71
2021/01/25 03:44:34;;;;;;;10.53;4.20;;;;;;;-2.04;98.33;94602.75;5024628;28;20206;-70
2021/01/25 03:47:00;;;;;;;10.20;4.27;;;;;;;-2.04;98.88;94599.38;5024983;28;20230;-71
2021/01/25 03:49:26;;;;;;;7.00;4.00;;;;;;;-2.10;99.69;94597.34;5024972;28;20712;-70
2021/01/25 03:51:52;;;;;;;6.97;3.33;;;;;;;-2.33;100.00;94593.47;5024713;28;20236;-71
2021/01/25 03:54:19;;;;;;;10.20;4.17;;;;;;;-2.35;100.00;94591.03;5024864;28;20267;-70
2021/01/25 03:56:45;;;;;;;7.43;3.77;;;;;;;-2.21;100.00;94598.34;5024308;28;20727;-70
2021/01/25 03:59:11;;;;;;;6.77;3.73;;;;;;;-2.15;100.00;94586.63;5025369;28;20288;-70
2021/01/25 04:01:37;;;;;;;13.07;3.70;;;;;;;-2.18;100.00;94589.50;5025666;28;20643;-70
2021/01/25 04:04:03;;;;;;;9.23;3.70;;;;;;;-2.10;100.00;94584.44;5024934;28;20205;-71
2021/01/25 04:06:29;;;;;;;11.23;3.90;;;;;;;-2.10;100.00;94589.59;5025397;28;20276;-70
2021/01/25 04:08:55;;;;;;;11.20;3.60;;;;;;;-2.11;100.00;94593.97;5024907;28;20224;-70
2021/01/25 04:11:22;;;;;;;8.67;3.83;;;;;;;-2.19;100.00;94599.03;5025424;28;20207;-71
2021/01/25 04:13:48;;;;;;;6.70;3.70;;;;;;;-2.06;100.00;94590.94;5025643;28;20201;-70
2021/01/25 04:16:14;;;;;;;5.60;3.27;;;;;;;-2.15;100.00;94602.94;5024955;28;20222;-71
2021/01/25 04:18:40;;;;;;;10.40;4.07;;;;;;;-2.08;100.00;94592.88;5025654;28;20555;-71
2021/01/25 04:21:06;;;;;;;8.13;3.50;;;;;;;-1.95;100.00;94586.41;5025689;28;20202;-71
2021/01/25 04:23:32;;;;;;;10.17;4.43;;;;;;;-1.90;100.00;94581.63;5026336;28;20201;-71
2021/01/25 04:25:58;;;;;;;9.53;3.93;;;;;;;-1.84;100.00;94585.44;5026309;28;20212;-71
2021/01/25 04:28:24;;;;;;;17.47;6.30;;;;;;;-1.78;100.00;94585.69;5025986;28;20704;-71
2021/01/25 04:30:50;;;;;;;31.37;11.63;;;;;;;-1.81;100.00;94581.59;5026290;28;20209;-71
2021/01/25 04:33:16;;;;;;;75.23;23.43;;;;;;;-1.91;100.00;94589.53;5026449;28;20241;-71
2021/01/25 04:35:42;;;;;;;35.70;11.53;;;;;;;-1.97;100.00;94583.19;5027025;28;20229;-71
2021/01/25 04:38:09;;;;;;;63.27;21.17;;;;;;;-2.04;100.00;94589.03;5027503;28;20261;-71
2021/01/25 04:40:35;;;;;;;49.43;18.47;;;;;;;-1.96;100.00;94584.81;5026474;28;20205;-71
2021/01/25 04:43:02;;;;;;;22.87;10.13;;;;;;;-1.87;100.00;94586.53;5027405;28;20198;-71
2021/01/25 04:45:29;;;;;;;29.03;9.87;;;;;;;-1.75;100.00;94583.59;5027122;28;20200;-71
2021/01/25 04:47:56;;;;;;;37.33;8.90;;;;;;;-1.63;100.00;94584.22;5027422;28;20225;-71
2021/01/25 04:50:22;;;;;;;93.43;17.60;;;;;;;-1.56;100.00;94574.94;5027772;28;20208;-71
2021/01/25 04:52:48;;;;;;;159.40;27.47;;;;;;;-1.54;100.00;94570.44;5027701;28;20201;-71
2021/01/25 04:55:15;;;;;;;64.57;15.13;;;;;;;-1.55;100.00;94569.63;5027592;28;20225;-71
2021/01/25 04:57:42;;;;;;;34.27;10.83;;;;;;;-1.47;100.00;94574.06;5026618;28;20236;-71
2021/01/25 05:00:09;;;;;;;14.83;5.33;;;;;;;-1.52;100.00;94571.13;5027581;28;20256;-71
2021/01/25 05:02:37;;;;;;;25.53;8.17;;;;;;;-1.48;100.00;94572.44;5027241;28;20287;-71
2021/01/25 05:05:04;;;;;;;39.97;9.87;;;;;;;-1.46;100.00;94576.50;5027473;28;20319;-71
2021/01/25 05:07:31;;;;;;;26.33;7.47;;;;;;;-1.46;100.00;94575.72;5028072;28;20228;-71
2021/01/25 05:09:57;;;;;;;47.83;12.10;;;;;;;-1.65;100.00;94581.78;5026658;28;20214;-71
2021/01/25 05:12:23;;;;;;;49.30;11.77;;;;;;;-1.68;100.00;94576.09;5026991;28;20240;-71
2021/01/25 05:14:49;;;;;;;31.20;10.30;;;;;;;-1.76;100.00;94570.84;5027251;28;20264;-71
2021/01/25 05:17:16;;;;;;;39.80;12.53;;;;;;;-1.74;100.00;94571.53;5026764;28;20278;-71
2021/01/25 05:19:46;;;;;;;18.30;6.30;;;;;;;-1.77;100.00;94564.88;5025874;28;20324;-71
2021/01/25 05:22:16;;;;;;;17.33;6.47;;;;;;;-1.66;100.00;94569.03;5026902;28;20232;-71
2021/01/25 05:24:47;;;;;;;17.67;5.70;;;;;;;-1.64;100.00;94569.69;5026820;28;20675;-71
2021/01/25 05:27:22;;;;;;;15.83;6.67;;;;;;;-1.70;100.00;94575.44;5026884;28;20236;-71
2021/01/25 05:29:48;;;;;;;18.20;7.23;;;;;;;-1.69;100.00;94570.13;5026072;28;20206;-71
2021/01/25 05:32:14;;;;;;;15.27;6.40;;;;;;;-1.73;100.00;94575.72;5026954;28;20297;-71
2021/01/25 05:34:40;;;;;;;18.13;6.23;;;;;;;-1.63;100.00;94576.47;5026066;28;20340;-71
2021/01/25 05:37:13;;;;;;;16.07;6.43;;;;;;;-1.58;100.00;94571.69;5025002;28;20236;-71
2021/01/25 05:39:44;;;;;;;26.83;6.93;;;;;;;-1.55;100.00;94571.41;5026438;28;20202;-71
2021/01/25 05:42:10;;;;;;;21.13;7.87;;;;;;;-1.54;100.00;94568.69;5025726;28;20205;-71
2021/01/25 05:44:37;;;;;;;16.47;6.27;;;;;;;-1.47;100.00;94563.75;5027297;28;20208;-71
2021/01/25 05:47:04;;;;;;;19.53;6.43;;;;;;;-1.39;100.00;94563.81;5029715;28;20241;-71
2021/01/25 05:49:30;;;;;;;16.03;6.13;;;;;;;-1.44;100.00;94566.03;5029891;28;20198;-71
2021/01/25 05:51:56;;;;;;;18.27;7.67;;;;;;;-1.35;100.00;94567.72;5030288;28;20205;-71
2021/01/25 05:54:24;;;;;;;20.30;8.43;;;;;;;-1.34;100.00;94559.84;5029666;28;20247;-71
2021/01/25 05:56:50;;;;;;;20.93;6.97;;;;;;;-1.30;100.00;94565.53;5029700;28;21046;-71
2021/01/25 05:59:16;;;;;;;23.87;7.73;;;;;;;-1.31;100.00;94566.47;5029834;28;20198;-71
2021/01/25 06:01:42;;;;;;;21.47;7.30;;;;;;;-1.26;100.00;94569.44;5029670;28;20213;-71
2021/01/25 06:04:11;;;;;;;28.30;10.20;;;;;;;-1.32;100.00;94570.00;5029465;28;20202;-71
2021/01/25 06:06:38;;;;;;;28.27;10.30;;;;;;;-1.44;100.00;94563.44;5029301;28;20426;-71
2021/01/25 06:09:12;;;;;;;23.80;8.33;;;;;;;-1.47;100.00;94561.97;5029826;28;20214;-71
2021/01/25 06:11:44;;;;;;;31.53;10.97;;;;;;;-1.47;100.00;94574.06;5029472;28;20264;-71
2021/01/25 06:14:19;;;;;;;26.27;11.20;;;;;;;-1.42;100.00;94574.44;5030342;28;20224;-71
2021/01/25 06:16:49;;;;;;;15.47;6.80;;;;;;;-1.50;100.00;94575.19;5029513;28;20221;-71
2021/01/25 06:19:19;;;;;;;18.13;6.27;;;;;;;-1.48;100.00;94577.59;5029776;28;20611;-71
2021/01/25 06:21:47;;;;;;;15.07;5.00;;;;;;;-1.54;100.00;94576.44;5028839;28;20225;-71
2021/01/25 06:24:14;;;;;;;17.63;5.80;;;;;;;-1.62;100.00;94576.31;5029186;28;20208;-71
2021/01/25 06:26:41;;;;;;;8.93;4.03;;;;;;;-1.66;100.00;94574.19;5029447;28;20230;-71
2021/01/25 06:29:08;;;;;;;9.20;4.70;;;;;;;-1.63;100.00;94574.72;5030854;28;20979;-71
2021/01/25 06:31:35;;;;;;;9.07;4.50;;;;;;;-1.59;100.00;94576.06;5030254;28;20240;-71
2021/01/25 06:34:02;;;;;;;8.67;4.10;;;;;;;-1.49;100.00;94583.72;5029938;28;20218;-71
2021/01/25 06:36:28;;;;;;;9.80;4.03;;;;;;;-1.47;100.00;94584.41;5029255;28;20233;-71
2021/01/25 06:38:55;;;;;;;5.13;3.30;;;;;;;-1.45;100.00;94588.47;5030014;28;20218;-71
2021/01/25 06:41:21;;;;;;;6.33;3.60;;;;;;;-1.38;100.00;94591.28;5023343;28;20207;-71
2021/01/25 06:43:49;;;;;;;10.67;3.50;;;;;;;-1.31;100.00;94589.72;5020934;28;20210;-71
2021/01/25 06:46:20;;;;;;;7.97;3.33;;;;;;;-1.28;100.00;94592.84;5020282;28;20248;-71
2021/01/25 06:48:48;;;;;;;8.33;3.70;;;;;;;-1.24;100.00;94593.38;5020618;28;20692;-71
2021/01/25 06:51:17;;;;;;;20.30;8.33;;;;;;;-1.27;100.00;94596.22;5020861;28;20205;-71
2021/01/25 06:53:44;;;;;;;14.03;6.63;;;;;;;-1.29;100.00;94593.78;5020850;28;20205;-71
2021/01/25 06:56:10;;;;;;;12.80;5.37;;;;;;;-1.23;100.00;94600.97;5019503;28;20237;-71
2021/01/25 06:58:38;;;;;;;10.37;5.03;;;;;;;-1.16;100.00;94610.56;5020386;28;20218;-71
2021/01/25 07:01:08;;;;;;;9.10;4.97;;;;;;;-1.15;100.00;94607.00;5020370;28;20205;-71
2021/01/25 07:03:45;;;;;;;8.87;3.50;;;;;;;-1.22;100.00;94610.34;5019419;28;20661;-71
2021/01/25 07:06:14;;;;;;;10.03;3.60;;;;;;;-1.22;100.00;94616.31;5020055;28;20255;-71
2021/01/25 07:08:40;;;;;;;7.27;3.73;;;;;;;-1.19;100.00;94616.00;5019717;28;20674;-71
2021/01/25 07:11:07;;;;;;;12.83;4.60;;;;;;;-1.07;100.00;94620.03;5020236;28;20209;-71
2021/01/25 07:13:34;;;;;;;11.33;5.33;;;;;;;-1.18;100.00;94622.81;5019891;28;20201;-71
2021/01/25 07:16:01;;;;;;;11.13;4.63;;;;;;;-1.15;100.00;94622.50;5019144;28;20230;-71
2021/01/25 07:18:29;;;;;;;8.07;4.77;;;;;;;-1.10;100.00;94622.09;5019874;28;20202;-71
2021/01/25 07:20:57;;;;;;;12.83;4.90;;;;;;;-1.04;100.00;94618.91;5019458;28;20288;-71
2021/01/25 07:23:24;;;;;;;11.00;5.93;;;;;;;-1.04;100.00;94617.13;5019429;28;20712;-71
2021/01/25 07:25:54;;;;;;;13.40;5.37;;;;;;;-0.97;100.00;94625.94;5019315;28;20339;-71
2021/01/25 07:28:21;;;;;;;11.13;5.47;;;;;;;-1.01;100.00;94627.16;5019164;28;20228;-71
2021/01/25 07:30:48;;;;;;;9.60;4.47;;;;;;;-0.95;100.00;94634.34;5019756;28;20220;-71
2021/01/25 07:33:14;;;;;;;9.90;4.57;;;;;;;-0.88;100.00;94629.41;5019776;28;20198;-71
2021/01/25 07:35:40;;;;;;;6.87;3.80;;;;;;;-0.83;100.00;94638.31;5018656;28;20317;-71
2021/01/25 07:38:06;;;;;;;11.00;3.90;;;;;;;-0.78;100.00;94649.03;5019215;28;20221;-71
2021/01/25 07:40:33;;;;;;;9.23;4.43;;;;;;;-0.77;100.00;94642.91;5018839;28;20744;-71
2021/01/25 07:43:01;;;;;;;8.67;3.70;;;;;;;-0.78;100.00;94645.66;5018736;28;20236;-71
2021/01/25 07:45:27;;;;;;;8.17;4.23;;;;;;;-0.77;100.00;94649.88;5018425;28;20681;-71
2021/01/25 07:47:53;;;;;;;16.60;5.93;;;;;;;-0.68;100.00;94647.19;5019300;28;20985;-71
2021/01/25 07:50:19;;;;;;;26.00;7.23;;;;;;;-0.64;100.00;94650.31;5018830;28;20267;-71
2021/01/25 07:52:56;;;;;;;30.90;10.93;;;;;;;-0.51;100.00;94652.38;5018227;28;20212;-71
2021/01/25 07:55:22;;;;;;;16.90;7.23;;;;;;;-0.47;100.00;94650.28;5018022;28;20246;-71
2021/01/25 07:57:48;;;;;;;16.20;5.60;;;;;;;-0.49;100.00;94652.22;5018606;28;20261;-71
2021/01/25 08:00:21;;;;;;;12.13;5.47;;;;;;;-0.43;100.00;94667.16;5018265;28;20206;-72
2021/01/25 08:02:53;;;;;;;9.17;4.20;;;;;;;-0.52;100.00;94657.69;5018403;28;20202;-71
2021/01/25 08:05:20;;;;;;;9.73;4.37;;;;;;;-0.47;100.00;94661.44;5017022;28;20241;-71
2021/01/25 08:07:48;;;;;;;15.30;5.10;;;;;;;-0.50;100.00;94660.94;5017438;28;20219;-71
2021/01/25 08:10:15;;;;;;;10.90;4.90;;;;;;;-0.47;100.00;94656.28;5018089;28;20260;-72
2021/01/25 08:12:43;;;;;;;20.00;5.77;;;;;;;-0.30;100.00;94663.19;5018116;28;20217;-71
2021/01/25 08:15:17;;;;;;;15.80;6.23;;;;;;;-0.11;100.00;94664.81;5017296;28;20221;-71
2021/01/25 08:17:48;;;;;;;17.10;5.03;;;;;;;-0.16;100.00;94672.22;5017928;28;20217;-72
2021/01/25 08:20:19;;;;;;;12.37;5.40;;;;;;;-0.08;100.00;94669.66;5017775;28;20203;-72
2021/01/25 08:22:51;;;;;;;11.13;5.70;;;;;;;0.07;100.00;94667.19;5017130;28;20208;-72
2021/01/25 08:25:18;;;;;;;18.80;8.10;;;;;;;0.24;100.00;94671.50;5017755;28;20201;-71
2021/01/25 08:27:55;;;;;;;17.63;7.57;;;;;;;0.30;100.00;94667.47;5017800;28;20227;-71
2021/01/25 08:30:22;;;;;;;16.10;7.07;;;;;;;0.25;100.00;94678.28;5018236;28;20212;-71
2021/01/25 08:32:52;;;;;;;18.83;8.07;;;;;;;0.22;100.00;94677.81;5018106;28;20210;-72
2021/01/25 08:35:28;;;;;;;20.83;9.13;;;;;;;0.28;100.00;94679.75;5018011;28;20237;-72
2021/01/25 08:38:06;;;;;;;13.53;7.40;;;;;;;0.11;100.00;94686.63;5017383;28;20335;-71
2021/01/25 08:40:35;;;;;;;17.47;7.50;;;;;;;0.16;100.00;94686.19;5018312;28;20209;-71
2021/01/25 08:43:01;;;;;;;20.00;7.23;;;;;;;0.28;100.00;94688.38;5017449;28;20264;-72
2021/01/25 08:45:31;;;;;;;24.40;8.80;;;;;;;0.22;100.00;94694.13;5016637;28;20216;-71
2021/01/25 08:48:08;;;;;;;20.80;8.23;;;;;;;0.29;100.00;94692.56;5017449;28;20321;-72
2021/01/25 08:50:35;;;;;;;25.27;7.13;;;;;;;0.38;100.00;94696.84;5019247;28;20218;-71
2021/01/25 08:53:04;;;;;;;22.60;7.33;;;;;;;0.37;100.00;94696.97;5017238;28;20202;-72
2021/01/25 08:55:37;;;;;;;14.00;7.80;;;;;;;0.36;100.00;94700.56;5017040;28;20701;-72
2021/01/25 08:58:14;;;;;;;23.70;8.63;;;;;;;0.44;100.00;94703.97;5018262;28;20221;-71
2021/01/25 09:00:42;;;;;;;21.63;8.73;;;;;;;0.59;100.00;94705.84;5016521;28;20301;-71
2021/01/25 09:03:11;;;;;;;20.00;9.13;;;;;;;0.60;100.00;94712.66;5016902;28;20208;-71
2021/01/25 09:05:37;;;;;;;18.83;9.17;;;;;;;0.63;100.00;94721.91;5017140;28;20227;-71
2021/01/25 09:08:04;;;;;;;18.23;8.57;;;;;;;0.77;100.00;94713.56;5016765;28;20221;-71
2021/01/25 09:10:30;;;;;;;19.53;9.00;;;;;;;0.80;100.00;94723.59;5016601;28;20220;-72
2021/01/25 09:12:56;;;;;;;17.77;9.60;;;;;;;0.92;100.00;94725.75;5016295;28;20229;-71
2021/01/25 09:15:23;;;;;;;14.67;8.20;;;;;;;1.04;100.00;94736.66;5016004;28;20225;-72
2021/01/25 09:17:49;;;;;;;20.87;9.77;;;;;;;1.12;100.00;94729.75;5016419;28;20232;-71
2021/01/25 09:20:16;;;;;;;16.67;9.30;;;;;;;1.41;100.00;94727.53;5018144;28;20281;-71
2021/01/25 09:22:42;;;;;;;28.57;10.10;;;;;;;1.75;100.00;94734.25;5020584;28;20229;-72
2021/01/25 09:25:12;;;;;;;19.33;9.60;;;;;;;1.74;100.00;94745.59;5019282;28;20202;-71
2021/01/25 09:27:39;;;;;;;14.07;8.03;;;;;;;1.71;100.00;94745.13;5020568;28;20264;-72
2021/01/25 09:30:06;;;;;;;22.23;9.77;;;;;;;1.85;100.00;94743.50;5020042;28;20210;-72
2021/01/25 09:32:32;;;;;;;16.67;9.17;;;;;;;1.30;100.00;94749.41;5020262;28;20200;-72
2021/01/25 09:34:59;;;;;;;19.87;9.87;;;;;;;1.19;100.00;94750.69;5019908;28;20204;-72
2021/01/25 09:37:25;;;;;;;13.87;8.37;;;;;;;1.04;100.00;94757.41;5020023;28;20295;-72
2021/01/25 09:39:51;;;;;;;23.33;10.23;;;;;;;1.02;100.00;94769.72;5020256;28;20676;-72
2021/01/25 09:42:17;;;;;;;19.13;9.87;;;;;;;1.04;100.00;94762.59;5020967;28;20208;-72
2021/01/25 09:44:43;;;;;;;19.47;9.80;;;;;;;0.86;100.00;94759.28;5020225;28;21116;-72
2021/01/25 09:47:09;;;;;;;19.30;10.00;;;;;;;0.85;100.00;94765.44;5019592;28;20236;-72
2021/01/25 09:49:35;;;;;;;17.13;7.80;;;;;;;0.92;100.00;94771.63;5019941;28;20240;-72
2021/01/25 09:52:02;;;;;;;17.93;9.03;;;;;;;1.01;100.00;94773.31;5020559;28;20204;-71
2021/01/25 09:54:28;;;;;;;18.77;8.77;;;;;;;0.94;100.00;94772.28;5020408;28;20214;-72
2021/01/25 09:56:54;;;;;;;9.70;5.30;;;;;;;1.11;100.00;94774.81;5018999;28;20236;-69
2021/01/25 09:59:20;;;;;;;16.43;8.73;;;;;;;1.09;100.00;94786.28;5020473;28;20208;-72
2021/01/25 10:01:46;;;;;;;17.20;9.47;;;;;;;1.33;100.00;94780.22;5019261;28;20202;-72
2021/01/25 10:04:13;;;;;;;19.17;10.57;;;;;;;1.42;100.00;94773.28;5019759;28;20204;-72
2021/01/25 10:06:39;;;;;;;27.93;10.23;;;;;;;1.41;100.00;94777.69;5019446;28;20219;-72
2021/01/25 10:09:06;;;;;;;32.77;14.50;;;;;;;1.59;100.00;94785.31;5015901;28;20246;-72
2021/01/25 10:11:32;;;;;;;26.60;11.50;;;;;;;1.75;100.00;94783.59;5020319;28;20215;-72
2021/01/25 10:13:58;;;;;;;32.47;14.10;;;;;;;1.75;100.00;94781.00;5020552;28;20213;-71
2021/01/25 10:16:24;;;;;;;40.23;14.47;;;;;;;1.54;100.00;94793.59;5018377;28;20243;-72
2021/01/25 10:18:50;;;;;;;30.70;12.40;;;;;;;1.53;100.00;94796.38;5020029;28;20283;-72
2021/01/25 10:21:17;;;;;;;16.93;8.43;;;;;;;1.48;100.00;94802.00;5019972;28;20206;-71
2021/01/25 10:23:43;;;;;;;44.63;17.37;;;;;;;1.39;100.00;94797.75;5018928;28;20409;-71
2021/01/25 10:26:11;;;;;;;25.17;10.70;;;;;;;1.52;100.00;94799.94;5019401;28;20200;-72
2021/01/25 10:28:37;;;;;;;26.27;12.50;;;;;;;1.50;100.00;94807.88;5019279;28;20208;-72
2021/01/25 10:31:03;;;;;;;24.83;11.40;;;;;;;1.53;100.00;94807.53;5019048;28;20209;-72
2021/01/25 10:33:28;;;;;;;26.30;10.70;;;;;;;1.40;100.00;94814.13;5019567;28;20310;-72
2021/01/25 10:35:54;;;;;;;20.93;10.00;;;;;;;1.45;100.00;94820.50;5018738;28;20288;-72
2021/01/25 10:38:20;;;;;;;20.17;11.13;;;;;;;1.40;100.00;94817.56;5018760;28;20237;-72
2021/01/25 10:40:46;;;;;;;26.00;11.80;;;;;;;1.55;100.00;94810.78;5019963;28;20298;-72
2021/01/25 10:43:13;;;;;;;19.73;10.20;;;;;;;1.58;100.00;94820.88;5018981;28;20203;-72
2021/01/25 10:45:39;;;;;;;21.43;10.80;;;;;;;1.55;100.00;94817.75;5018457;28;20204;-72
2021/01/25 10:48:05;;;;;;;16.23;8.50;;;;;;;1.65;100.00;94827.03;5019053;28;21135;-72
2021/01/25 10:50:31;;;;;;;20.80;9.67;;;;;;;1.78;100.00;94835.19;5019456;28;20209;-72
2021/01/25 10:52:57;;;;;;;21.57;8.83;;;;;;;1.98;100.00;94824.34;5018459;28;20949;-72
2021/01/25 10:55:23;;;;;;;28.17;10.17;;;;;;;2.05;100.00;94829.72;5018221;28;20291;-72
2021/01/25 10:57:49;;;;;;;18.90;8.50;;;;;;;2.17;100.00;94833.66;5018950;28;20282;-72
2021/01/25 11:00:19;;;;;;;21.17;9.40;;;;;;;2.02;100.00;94840.44;5018517;28;20216;-72
2021/01/25 11:02:46;;;;;;;21.97;9.27;;;;;;;1.91;100.00;94838.16;5018678;28;20208;-72
2021/01/25 11:05:15;;;;;;;23.70;10.07;;;;;;;1.89;100.00;94840.09;5017757;28;20201;-72
2021/01/25 11:07:41;;;;;;;15.60;8.40;;;;;;;1.80;100.00;94846.25;5018316;28;20577;-72
2021/01/25 11:10:11;;;;;;;23.10;8.93;;;;;;;1.76;100.00;94851.88;5018378;28;20216;-72
2021/01/25 11:12:37;;;;;;;22.37;11.37;;;;;;;1.85;100.00;94843.97;5018845;28;20227;-72
2021/01/25 11:15:05;;;;;;;20.07;10.10;;;;;;;2.07;100.00;94857.16;5017420;28;20299;-72
2021/01/25 11:17:32;;;;;;;19.87;9.80;;;;;;;2.01;100.00;94851.81;5017700;28;20229;-72
2021/01/25 11:19:58;;;;;;;24.03;9.80;;;;;;;2.04;100.00;94856.69;5018293;28;20224;-72
2021/01/25 11:22:24;;;;;;;20.97;9.67;;;;;;;2.04;100.00;94859.28;5017913;28;20388;-72